createdAt,value
2023-04-23T00:01:57.379Z,61.40
2023-04-23T00:06:17.732Z,61.40
2023-04-23T00:10:36.743Z,62.20
2023-04-23T00:14:56.247Z,62.40
2023-04-23T00:19:15.652Z,62.50
2023-04-23T00:23:34.499Z,62.70
2023-04-23T00:27:51.859Z,63.20
2023-04-23T00:32:11.523Z,63.40
2023-04-23T00:36:31.184Z,63.70
2023-04-23T00:40:49.346Z,64.00
2023-04-23T00:45:10.153Z,64.50
2023-04-23T00:49:30.857Z,64.70
2023-04-23T00:53:49.554Z,64.80
2023-04-23T00:58:07.944Z,65.10
2023-04-23T01:02:26.988Z,65.50
2023-04-23T01:06:49.093Z,65.90
2023-04-23T01:11:08.366Z,66.60
2023-04-23T01:15:25.894Z,67.20
2023-04-23T01:19:44.142Z,67.50
2023-04-23T01:24:03.712Z,67.80
2023-04-23T01:28:23.580Z,68.50
2023-04-23T01:32:42.649Z,69.10
2023-04-23T01:37:01.938Z,70.00
2023-04-23T01:41:23.414Z,70.90
2023-04-23T01:45:43.217Z,71.50
2023-04-23T01:50:00.849Z,71.90
2023-04-23T01:54:19.634Z,72.40
2023-04-23T01:58:38.693Z,72.80
2023-04-23T02:02:58.229Z,73.30
2023-04-23T02:07:16.336Z,73.90
2023-04-23T02:11:40.501Z,74.50
2023-04-23T02:16:06.514Z,75.60
2023-04-23T02:20:30.723Z,76.70
2023-04-23T02:24:55.248Z,77.40
2023-04-23T02:29:19.868Z,78.00
2023-04-23T02:33:47.045Z,78.70
2023-04-23T02:38:11.846Z,79.30
2023-04-23T02:42:36.767Z,79.50
2023-04-23T02:47:02.401Z,79.80
2023-04-23T02:51:28.463Z,80.20
2023-04-23T02:55:52.447Z,81.40
2023-04-23T03:00:17.137Z,84.60
2023-04-23T03:04:41.789Z,87.40
2023-04-23T03:09:10.110Z,89.70
2023-04-23T03:13:34.156Z,90.70
2023-04-23T03:17:58.318Z,91.30
2023-04-23T03:22:22.688Z,91.90
2023-04-23T03:26:48.668Z,92.20
2023-04-23T03:31:12.825Z,92.30
2023-04-23T03:35:37.205Z,92.40
2023-04-23T03:40:07.810Z,92.40
2023-04-23T03:44:37.876Z,92.20
2023-04-23T03:49:02.675Z,92.30
2023-04-23T03:53:26.842Z,91.80
2023-04-23T03:58:10.752Z,91.40
2023-04-23T04:02:42.591Z,91.10
2023-04-23T04:07:07.698Z,90.90
2023-04-23T04:11:31.606Z,90.70
2023-04-23T04:15:56.128Z,90.80
2023-04-23T04:20:21.843Z,90.90
2023-04-23T04:24:47.751Z,91.00
2023-04-23T04:29:12.086Z,91.00
2023-04-23T04:33:38.157Z,91.00
2023-04-23T04:38:03.675Z,90.90
2023-04-23T04:42:27.551Z,90.90
2023-04-23T04:46:51.441Z,90.90
2023-04-23T04:51:15.418Z,90.90
2023-04-23T04:55:43.295Z,90.90
2023-04-23T05:00:22.571Z,90.70
2023-04-23T05:04:46.569Z,90.50
2023-04-23T05:09:10.885Z,90.30
2023-04-23T05:13:40.994Z,90.20
2023-04-23T05:18:06.434Z,90.10
2023-04-23T05:22:30.509Z,90.00
2023-04-23T05:26:54.987Z,90.00
2023-04-23T05:31:22.982Z,89.90
2023-04-23T05:35:47.081Z,89.80
2023-04-23T05:40:11.689Z,89.80
2023-04-23T05:44:35.683Z,89.50
2023-04-23T05:49:01.164Z,89.30
2023-04-23T05:53:25.109Z,89.30
2023-04-23T05:57:46.355Z,89.90
2023-04-23T06:02:11.878Z,90.40
2023-04-23T06:06:37.594Z,90.50
2023-04-23T06:11:02.054Z,90.10
2023-04-23T06:15:27.274Z,89.50
2023-04-23T06:19:52.790Z,88.20
2023-04-23T06:24:18.223Z,87.60
2023-04-23T06:28:43.843Z,87.90
2023-04-23T06:33:34.455Z,89.00
2023-04-23T06:37:58.359Z,89.30
2023-04-23T06:42:24.124Z,89.60
2023-04-23T06:47:08.381Z,89.10
2023-04-23T06:51:32.484Z,87.90
2023-04-23T06:55:56.481Z,88.20
2023-04-23T07:00:22.224Z,88.40
2023-04-23T07:04:46.932Z,87.40
2023-04-23T07:09:11.379Z,87.50
2023-04-23T07:13:35.152Z,87.40
2023-04-23T07:18:00.509Z,87.30
2023-04-23T07:22:25.715Z,86.90
2023-04-23T07:26:49.834Z,86.30
2023-04-23T07:31:13.870Z,85.80
2023-04-23T07:35:39.687Z,85.10
2023-04-23T07:40:05.679Z,85.50
2023-04-23T07:44:29.630Z,89.50
2023-04-23T07:48:53.865Z,91.60
2023-04-23T07:53:19.690Z,93.00
2023-04-23T07:57:43.938Z,94.70
2023-04-23T08:02:08.079Z,96.00
2023-04-23T08:06:35.133Z,96.90
2023-04-23T08:11:00.656Z,97.20
2023-04-23T08:15:24.665Z,98.30
2023-04-23T08:19:48.527Z,99.30
2023-04-23T08:24:12.654Z,99.10
2023-04-23T08:28:39.507Z,97.30
2023-04-23T08:33:03.726Z,94.20
2023-04-23T08:37:31.399Z,92.50
2023-04-23T08:41:56.783Z,91.10
2023-04-23T08:46:24.108Z,91.00
2023-04-23T08:50:48.923Z,91.90
2023-04-23T08:55:15.090Z,92.20
2023-04-23T08:59:40.979Z,91.70
2023-04-23T09:04:07.467Z,91.40
2023-04-23T09:08:32.494Z,91.10
2023-04-23T09:12:59.109Z,90.60
2023-04-23T09:17:24.601Z,85.50
2023-04-23T09:21:50.166Z,84.70
2023-04-23T09:26:21.401Z,84.80
2023-04-23T09:30:46.194Z,80.30
2023-04-23T09:35:15.374Z,75.80
2023-04-23T09:39:41.225Z,70.90
2023-04-23T09:44:05.628Z,68.00
2023-04-23T09:48:42.710Z,67.10
2023-04-23T09:53:08.210Z,64.90
2023-04-23T09:57:37.697Z,63.10
2023-04-23T10:02:07.072Z,60.80
2023-04-23T10:06:44.360Z,57.50
2023-04-23T10:11:20.787Z,55.70
2023-04-23T10:15:48.401Z,54.80
2023-04-23T10:20:13.578Z,53.50
2023-04-23T10:24:41.522Z,53.70
2023-04-23T10:29:10.321Z,51.70
2023-04-23T10:33:45.754Z,50.80
2023-04-23T10:38:20.187Z,48.40
2023-04-23T10:42:45.576Z,48.30
2023-04-23T10:47:14.179Z,46.90
2023-04-23T10:56:10.737Z,43.80
2023-04-23T11:00:46.540Z,42.00
2023-04-23T11:05:10.813Z,42.80
2023-04-23T11:09:44.599Z,40.70
2023-04-23T11:14:15.238Z,39.80
2023-04-23T11:19:03.074Z,39.80
2023-04-23T11:23:33.625Z,40.30
2023-04-23T11:27:59.618Z,40.10
2023-04-23T11:32:24.369Z,40.90
2023-04-23T11:36:49.818Z,41.40
2023-04-23T11:41:16.741Z,41.40
2023-04-23T11:45:43.041Z,41.20
2023-04-23T11:50:11.486Z,41.80
2023-04-23T11:54:35.513Z,42.50
2023-04-23T11:59:03.774Z,42.00
2023-04-23T12:03:30.151Z,42.00
2023-04-23T12:07:54.583Z,42.50
2023-04-23T12:12:18.485Z,42.40
2023-04-23T12:16:44.207Z,42.70
2023-04-23T12:21:11.072Z,43.80
2023-04-23T12:25:35.417Z,44.40
2023-04-23T12:30:03.516Z,44.70
2023-04-23T12:34:29.493Z,44.90
2023-04-23T12:38:54.736Z,44.60
2023-04-23T12:43:18.635Z,44.60
2023-04-23T12:47:42.692Z,44.40
2023-04-23T12:52:07.588Z,43.80
2023-04-23T12:56:36.395Z,43.90
2023-04-23T13:01:00.261Z,44.60
2023-04-23T13:05:24.754Z,44.40
2023-04-23T13:09:48.621Z,44.50
2023-04-23T13:14:13.984Z,44.70
2023-04-23T13:18:31.679Z,44.80
2023-04-23T13:22:56.135Z,44.50
2023-04-23T13:27:20.025Z,44.60
2023-04-23T13:31:45.258Z,45.00
2023-04-23T13:36:11.889Z,45.20
2023-04-23T13:40:36.641Z,45.50
2023-04-23T13:45:00.604Z,45.10
2023-04-23T13:49:44.908Z,45.30
2023-04-23T13:54:29.624Z,45.40
2023-04-23T13:59:20.116Z,45.30
2023-04-23T14:04:05.100Z,45.00
2023-04-23T14:08:51.292Z,44.80
2023-04-23T14:13:35.615Z,45.10
2023-04-23T14:18:19.837Z,45.10
2023-04-23T14:23:12.627Z,44.80
2023-04-23T14:28:03.385Z,44.70
2023-04-23T14:32:50.121Z,45.00
2023-04-23T14:37:34.940Z,45.20
2023-04-23T14:42:19.463Z,44.90
2023-04-23T14:47:07.194Z,44.80
2023-04-23T14:51:54.187Z,44.60
2023-04-23T14:56:38.464Z,44.60
2023-04-23T15:01:22.731Z,44.70
2023-04-23T15:06:09.439Z,44.60
2023-04-23T15:10:53.541Z,44.30
2023-04-23T15:15:45.305Z,44.50
2023-04-23T15:20:29.819Z,44.80
2023-04-23T15:25:16.464Z,44.60
2023-04-23T15:30:00.844Z,45.10
2023-04-23T15:34:45.017Z,45.40
2023-04-23T15:39:30.107Z,45.50
2023-04-23T15:44:15.917Z,45.60
2023-04-23T15:49:00.246Z,45.80
2023-04-23T15:53:44.460Z,46.00
2023-04-23T15:58:28.722Z,46.20
2023-04-23T16:03:15.202Z,46.50
2023-04-23T16:07:59.924Z,46.80
2023-04-23T16:12:45.814Z,47.20
2023-04-23T16:17:30.275Z,47.50
2023-04-23T16:22:17.620Z,47.40
2023-04-23T16:27:02.307Z,47.40
2023-04-23T16:31:46.457Z,47.90
2023-04-23T16:36:32.669Z,48.30
2023-04-23T16:41:19.768Z,47.50
2023-04-23T16:46:03.916Z,47.80
2023-04-23T16:50:48.087Z,48.00
2023-04-23T16:55:32.202Z,48.40
2023-04-23T17:00:18.858Z,48.30
2023-04-23T17:05:06.133Z,48.70
2023-04-23T17:09:56.061Z,49.10
2023-04-23T17:14:40.441Z,49.60
2023-04-23T17:19:27.915Z,49.90
2023-04-23T17:24:15.916Z,50.40
2023-04-23T17:29:07.976Z,51.00
2023-04-23T17:33:56.450Z,51.40
2023-04-23T17:38:59.450Z,51.60
2023-04-23T17:43:43.487Z,51.90
2023-04-23T17:48:30.052Z,52.20
2023-04-23T17:53:14.317Z,52.50
2023-04-23T17:58:05.637Z,53.30
2023-04-23T18:02:50.163Z,54.20
2023-04-23T18:07:45.242Z,54.50
2023-04-23T18:12:33.120Z,55.20
2023-04-23T18:17:19.200Z,55.60
2023-04-23T18:22:06.025Z,56.20
2023-04-23T18:27:01.435Z,56.60
2023-04-23T18:31:48.474Z,57.00
2023-04-23T18:36:38.988Z,57.50
2023-04-23T18:41:51.455Z,58.00
2023-04-23T18:46:37.282Z,58.50
2023-04-23T18:51:27.651Z,58.80
2023-04-23T18:55:55.893Z,59.20
2023-04-23T19:00:20.110Z,59.60
2023-04-23T19:04:47.007Z,60.20
2023-04-23T19:09:14.212Z,60.50
2023-04-23T19:13:41.898Z,61.10
2023-04-23T19:18:08.972Z,61.80
2023-04-23T19:22:33.498Z,62.30
2023-04-23T19:26:58.212Z,62.60
2023-04-23T19:31:25.804Z,62.90
2023-04-23T19:35:50.403Z,63.60
2023-04-23T19:40:26.164Z,64.00
2023-04-23T19:45:23.493Z,64.50
2023-04-23T19:50:08.889Z,65.50
2023-04-23T19:54:36.176Z,65.70
2023-04-23T19:59:05.564Z,66.70
2023-04-23T20:03:34.438Z,66.60
2023-04-23T20:08:06.713Z,67.00
2023-04-23T20:12:34.724Z,67.40
2023-04-23T20:17:04.584Z,68.30
2023-04-23T20:21:28.487Z,69.10
2023-04-23T20:25:57.143Z,69.40
2023-04-23T20:30:25.593Z,70.40
2023-04-23T20:34:49.552Z,71.10
2023-04-23T20:39:25.622Z,71.60
2023-04-23T20:43:53.141Z,72.10
2023-04-23T20:48:17.117Z,72.70
2023-04-23T20:52:42.346Z,73.50
2023-04-23T20:57:07.093Z,74.20
2023-04-23T21:01:35.456Z,75.00
2023-04-23T21:05:59.503Z,75.70
2023-04-23T21:10:23.512Z,76.90
2023-04-23T21:14:48.195Z,78.20
2023-04-23T21:19:13.694Z,79.30
2023-04-23T21:23:37.946Z,80.30
2023-04-23T21:28:02.094Z,81.30
2023-04-23T21:32:31.552Z,82.30
2023-04-23T21:36:56.958Z,83.20
2023-04-23T21:41:20.976Z,84.70
2023-04-23T21:45:54.093Z,86.30
2023-04-23T21:50:21.287Z,88.10
2023-04-23T21:54:49.292Z,90.00
2023-04-23T21:59:13.489Z,90.90
2023-04-23T22:03:42.423Z,91.40
2023-04-23T22:08:07.537Z,92.60
2023-04-23T22:12:32.812Z,93.60
2023-04-23T22:16:59.866Z,94.80
2023-04-23T22:21:23.970Z,95.40
2023-04-23T22:25:50.650Z,95.60
2023-04-23T22:30:18.700Z,95.60
2023-04-23T22:34:45.889Z,95.60
2023-04-23T22:39:13.317Z,95.80
2023-04-23T22:43:40.985Z,96.00
2023-04-23T22:48:08.859Z,95.80
2023-04-23T22:52:32.786Z,95.90
2023-04-23T22:56:57.039Z,96.10
2023-04-23T23:01:37.457Z,96.10
2023-04-23T23:06:15.062Z,96.00
2023-04-23T23:10:45.876Z,95.50
2023-04-23T23:15:10.564Z,95.10
2023-04-23T23:19:34.627Z,94.50
2023-04-23T23:24:00.317Z,94.00
2023-04-23T23:28:24.713Z,93.50
2023-04-23T23:32:53.968Z,93.10
2023-04-23T23:37:18.669Z,92.60
2023-04-23T23:41:45.824Z,92.20
2023-04-23T23:46:18.256Z,91.90
2023-04-23T23:50:44.026Z,91.90
2023-04-23T23:55:10.648Z,91.40
2023-04-23T23:59:39.791Z,91.30
